sensor_id;sensor_type;location;lat;lon;timestamp;P1;durP1;ratioP1;P2;durP2;ratioP2
5349;SDS011;2697;42.144;24.794;2023-02-05T00:01:30;2.03;;;1.50;;
5349;SDS011;2697;42.144;24.794;2023-02-05T00:03:56;0.97;;;0.97;;
5349;SDS011;2697;42.144;24.794;2023-02-05T00:06:21;1.93;;;0.97;;
5349;SDS011;2697;42.144;24.794;2023-02-05T00:08:47;1.10;;;1.00;;
5349;SDS011;2697;42.144;24.794;2023-02-05T00:11:12;1.53;;;1.43;;
5349;SDS011;2697;42.144;24.794;2023-02-05T00:13:38;1.53;;;1.00;;
5349;SDS011;2697;42.144;24.794;2023-02-05T00:16:08;1.00;;;0.90;;
5349;SDS011;2697;42.144;24.794;2023-02-05T00:18:39;2.10;;;1.40;;
5349;SDS011;2697;42.144;24.794;2023-02-05T00:21:05;5.60;;;1.13;;
5349;SDS011;2697;42.144;24.794;2023-02-05T00:23:31;1.77;;;0.97;;
5349;SDS011;2697;42.144;24.794;2023-02-05T00:25:57;1.47;;;1.33;;
5349;SDS011;2697;42.144;24.794;2023-02-05T00:28:22;2.10;;;1.30;;
5349;SDS011;2697;42.144;24.794;2023-02-05T00:30:47;1.00;;;0.90;;
5349;SDS011;2697;42.144;24.794;2023-02-05T00:33:13;1.10;;;1.00;;
5349;SDS011;2697;42.144;24.794;2023-02-05T00:35:40;1.30;;;1.20;;
5349;SDS011;2697;42.144;24.794;2023-02-05T00:38:06;2.63;;;1.70;;
5349;SDS011;2697;42.144;24.794;2023-02-05T00:40:31;1.07;;;0.80;;
5349;SDS011;2697;42.144;24.794;2023-02-05T00:42:57;2.10;;;1.30;;
5349;SDS011;2697;42.144;24.794;2023-02-05T00:45:22;2.20;;;1.10;;
5349;SDS011;2697;42.144;24.794;2023-02-05T00:47:47;1.00;;;0.90;;
5349;SDS011;2697;42.144;24.794;2023-02-05T00:50:13;1.30;;;1.20;;
5349;SDS011;2697;42.144;24.794;2023-02-05T00:52:38;1.10;;;0.80;;
5349;SDS011;2697;42.144;24.794;2023-02-05T00:55:04;1.77;;;1.30;;
5349;SDS011;2697;42.144;24.794;2023-02-05T00:57:29;2.40;;;1.00;;
5349;SDS011;2697;42.144;24.794;2023-02-05T00:59:55;5.70;;;1.27;;
5349;SDS011;2697;42.144;24.794;2023-02-05T01:02:20;4.03;;;1.63;;
5349;SDS011;2697;42.144;24.794;2023-02-05T01:04:51;1.37;;;1.20;;
5349;SDS011;2697;42.144;24.794;2023-02-05T01:07:17;0.90;;;0.80;;
5349;SDS011;2697;42.144;24.794;2023-02-05T01:09:43;1.23;;;1.13;;
5349;SDS011;2697;42.144;24.794;2023-02-05T01:12:09;0.97;;;0.90;;
5349;SDS011;2697;42.144;24.794;2023-02-05T01:14:34;1.77;;;1.07;;
5349;SDS011;2697;42.144;24.794;2023-02-05T01:17:00;0.80;;;0.80;;
5349;SDS011;2697;42.144;24.794;2023-02-05T01:19:25;1.83;;;1.00;;
5349;SDS011;2697;42.144;24.794;2023-02-05T01:21:51;2.93;;;1.00;;
5349;SDS011;2697;42.144;24.794;2023-02-05T01:24:16;0.80;;;0.80;;
5349;SDS011;2697;42.144;24.794;2023-02-05T01:26:41;1.33;;;1.23;;
5349;SDS011;2697;42.144;24.794;2023-02-05T01:29:07;1.43;;;0.83;;
5349;SDS011;2697;42.144;24.794;2023-02-05T01:31:32;3.70;;;1.60;;
5349;SDS011;2697;42.144;24.794;2023-02-05T01:33:58;1.80;;;0.90;;
5349;SDS011;2697;42.144;24.794;2023-02-05T01:36:23;0.93;;;0.90;;
5349;SDS011;2697;42.144;24.794;2023-02-05T01:38:49;0.93;;;0.90;;
5349;SDS011;2697;42.144;24.794;2023-02-05T01:41:14;1.87;;;1.33;;
5349;SDS011;2697;42.144;24.794;2023-02-05T01:43:40;1.50;;;1.10;;
5349;SDS011;2697;42.144;24.794;2023-02-05T01:46:10;3.80;;;1.27;;
5349;SDS011;2697;42.144;24.794;2023-02-05T01:48:44;1.37;;;1.23;;
5349;SDS011;2697;42.144;24.794;2023-02-05T01:51:13;0.70;;;0.70;;
5349;SDS011;2697;42.144;24.794;2023-02-05T01:53:40;1.50;;;1.40;;
5349;SDS011;2697;42.144;24.794;2023-02-05T01:56:14;1.43;;;0.90;;
5349;SDS011;2697;42.144;24.794;2023-02-05T01:58:48;2.03;;;0.93;;
5349;SDS011;2697;42.144;24.794;2023-02-05T02:01:20;2.47;;;1.40;;
5349;SDS011;2697;42.144;24.794;2023-02-05T02:03:47;1.23;;;0.87;;
5349;SDS011;2697;42.144;24.794;2023-02-05T02:06:14;1.23;;;1.13;;
5349;SDS011;2697;42.144;24.794;2023-02-05T02:08:39;1.60;;;1.00;;
5349;SDS011;2697;42.144;24.794;2023-02-05T02:11:05;3.63;;;1.23;;
5349;SDS011;2697;42.144;24.794;2023-02-05T02:13:33;1.70;;;1.17;;
5349;SDS011;2697;42.144;24.794;2023-02-05T02:16:01;2.70;;;1.40;;
5349;SDS011;2697;42.144;24.794;2023-02-05T02:18:27;2.10;;;1.70;;
5349;SDS011;2697;42.144;24.794;2023-02-05T02:30:08;1.40;;;1.30;;
5349;SDS011;2697;42.144;24.794;2023-02-05T02:32:17;1.90;;;1.10;;
5349;SDS011;2697;42.144;24.794;2023-02-05T02:34:50;1.77;;;1.67;;
5349;SDS011;2697;42.144;24.794;2023-02-05T02:37:34;1.50;;;1.40;;
5349;SDS011;2697;42.144;24.794;2023-02-05T02:40:13;1.53;;;1.43;;
5349;SDS011;2697;42.144;24.794;2023-02-05T02:42:46;2.83;;;2.30;;
5349;SDS011;2697;42.144;24.794;2023-02-05T02:45:17;2.00;;;1.80;;
5349;SDS011;2697;42.144;24.794;2023-02-05T02:47:51;1.73;;;1.63;;
5349;SDS011;2697;42.144;24.794;2023-02-05T02:50:39;2.40;;;2.20;;
5349;SDS011;2697;42.144;24.794;2023-02-05T02:53:16;3.23;;;1.97;;
5349;SDS011;2697;42.144;24.794;2023-02-05T02:55:44;4.67;;;2.63;;
5349;SDS011;2697;42.144;24.794;2023-02-05T02:58:15;3.50;;;2.30;;
5349;SDS011;2697;42.144;24.794;2023-02-05T03:00:44;2.90;;;2.30;;
5349;SDS011;2697;42.144;24.794;2023-02-05T03:03:12;2.97;;;1.90;;
5349;SDS011;2697;42.144;24.794;2023-02-05T03:05:41;2.70;;;2.50;;
5349;SDS011;2697;42.144;24.794;2023-02-05T03:08:20;3.27;;;2.30;;
5349;SDS011;2697;42.144;24.794;2023-02-05T03:10:52;2.93;;;1.40;;
5349;SDS011;2697;42.144;24.794;2023-02-05T03:13:25;4.73;;;2.60;;
5349;SDS011;2697;42.144;24.794;2023-02-05T03:15:51;3.70;;;2.30;;
5349;SDS011;2697;42.144;24.794;2023-02-05T03:18:17;3.57;;;2.37;;
5349;SDS011;2697;42.144;24.794;2023-02-05T03:20:48;7.97;;;3.23;;
5349;SDS011;2697;42.144;24.794;2023-02-05T03:23:16;2.13;;;1.83;;
5349;SDS011;2697;42.144;24.794;2023-02-05T03:25:42;4.40;;;2.47;;
5349;SDS011;2697;42.144;24.794;2023-02-05T03:28:07;3.73;;;1.87;;
5349;SDS011;2697;42.144;24.794;2023-02-05T03:30:39;2.90;;;2.00;;
5349;SDS011;2697;42.144;24.794;2023-02-05T03:39:10;3.13;;;2.63;;
5349;SDS011;2697;42.144;24.794;2023-02-05T03:41:57;2.90;;;1.90;;
5349;SDS011;2697;42.144;24.794;2023-02-05T03:47:31;2.70;;;1.60;;
5349;SDS011;2697;42.144;24.794;2023-02-05T03:50:08;3.80;;;2.70;;
5349;SDS011;2697;42.144;24.794;2023-02-05T03:52:46;3.40;;;2.50;;
5349;SDS011;2697;42.144;24.794;2023-02-05T03:55:22;4.90;;;3.50;;
5349;SDS011;2697;42.144;24.794;2023-02-05T03:57:58;4.70;;;3.10;;
5349;SDS011;2697;42.144;24.794;2023-02-05T04:00:28;3.33;;;2.60;;
5349;SDS011;2697;42.144;24.794;2023-02-05T04:02:55;3.17;;;2.60;;
5349;SDS011;2697;42.144;24.794;2023-02-05T04:05:21;5.10;;;3.57;;
5349;SDS011;2697;42.144;24.794;2023-02-05T04:07:47;3.90;;;3.30;;
5349;SDS011;2697;42.144;24.794;2023-02-05T04:10:16;3.17;;;2.70;;
5349;SDS011;2697;42.144;24.794;2023-02-05T04:12:42;3.67;;;2.90;;
5349;SDS011;2697;42.144;24.794;2023-02-05T04:15:08;6.17;;;3.63;;
5349;SDS011;2697;42.144;24.794;2023-02-05T04:17:36;9.37;;;3.97;;
5349;SDS011;2697;42.144;24.794;2023-02-05T04:20:02;4.97;;;3.53;;
5349;SDS011;2697;42.144;24.794;2023-02-05T04:22:28;5.73;;;3.90;;
5349;SDS011;2697;42.144;24.794;2023-02-05T04:24:54;7.07;;;3.27;;
5349;SDS011;2697;42.144;24.794;2023-02-05T04:27:19;3.40;;;2.10;;
5349;SDS011;2697;42.144;24.794;2023-02-05T04:29:44;14.53;;;3.80;;
5349;SDS011;2697;42.144;24.794;2023-02-05T04:32:10;2.77;;;2.23;;
5349;SDS011;2697;42.144;24.794;2023-02-05T04:34:35;6.10;;;3.20;;
5349;SDS011;2697;42.144;24.794;2023-02-05T04:37:01;4.50;;;3.67;;
5349;SDS011;2697;42.144;24.794;2023-02-05T04:39:26;7.60;;;3.00;;
5349;SDS011;2697;42.144;24.794;2023-02-05T04:41:51;4.70;;;3.90;;
5349;SDS011;2697;42.144;24.794;2023-02-05T04:44:17;4.87;;;3.13;;
5349;SDS011;2697;42.144;24.794;2023-02-05T04:46:42;6.17;;;3.40;;
5349;SDS011;2697;42.144;24.794;2023-02-05T04:49:08;5.63;;;3.40;;
5349;SDS011;2697;42.144;24.794;2023-02-05T04:51:33;3.70;;;2.70;;
5349;SDS011;2697;42.144;24.794;2023-02-05T04:53:58;4.53;;;3.40;;
5349;SDS011;2697;42.144;24.794;2023-02-05T04:56:24;7.73;;;3.50;;
5349;SDS011;2697;42.144;24.794;2023-02-05T04:58:49;7.50;;;3.17;;
5349;SDS011;2697;42.144;24.794;2023-02-05T05:01:16;4.80;;;3.30;;
5349;SDS011;2697;42.144;24.794;2023-02-05T05:03:43;6.40;;;3.40;;
5349;SDS011;2697;42.144;24.794;2023-02-05T05:06:09;3.43;;;2.97;;
5349;SDS011;2697;42.144;24.794;2023-02-05T05:08:35;4.67;;;2.90;;
5349;SDS011;2697;42.144;24.794;2023-02-05T05:11:04;4.87;;;3.23;;
5349;SDS011;2697;42.144;24.794;2023-02-05T05:13:32;5.23;;;3.77;;
5349;SDS011;2697;42.144;24.794;2023-02-05T05:15:58;2.97;;;2.23;;
5349;SDS011;2697;42.144;24.794;2023-02-05T05:18:24;4.50;;;3.67;;
5349;SDS011;2697;42.144;24.794;2023-02-05T05:20:49;5.10;;;2.90;;
5349;SDS011;2697;42.144;24.794;2023-02-05T05:23:14;2.67;;;2.30;;
5349;SDS011;2697;42.144;24.794;2023-02-05T05:25:43;3.43;;;2.70;;
5349;SDS011;2697;42.144;24.794;2023-02-05T05:28:10;3.53;;;3.23;;
5349;SDS011;2697;42.144;24.794;2023-02-05T05:30:39;10.73;;;3.10;;
5349;SDS011;2697;42.144;24.794;2023-02-05T05:33:06;3.43;;;2.60;;
5349;SDS011;2697;42.144;24.794;2023-02-05T05:35:32;2.90;;;2.23;;
5349;SDS011;2697;42.144;24.794;2023-02-05T05:37:58;6.30;;;3.30;;
5349;SDS011;2697;42.144;24.794;2023-02-05T05:40:24;3.50;;;2.73;;
5349;SDS011;2697;42.144;24.794;2023-02-05T05:43:10;5.10;;;2.93;;
5349;SDS011;2697;42.144;24.794;2023-02-05T05:45:55;3.63;;;3.03;;
5349;SDS011;2697;42.144;24.794;2023-02-05T05:48:21;3.20;;;2.90;;
5349;SDS011;2697;42.144;24.794;2023-02-05T05:50:46;5.97;;;3.47;;
5349;SDS011;2697;42.144;24.794;2023-02-05T05:53:11;4.90;;;3.27;;
5349;SDS011;2697;42.144;24.794;2023-02-05T05:55:37;2.70;;;2.50;;
5349;SDS011;2697;42.144;24.794;2023-02-05T05:58:02;3.77;;;2.80;;
5349;SDS011;2697;42.144;24.794;2023-02-05T06:00:27;4.20;;;2.80;;
5349;SDS011;2697;42.144;24.794;2023-02-05T06:02:53;5.77;;;3.20;;
5349;SDS011;2697;42.144;24.794;2023-02-05T06:05:18;7.40;;;2.90;;
5349;SDS011;2697;42.144;24.794;2023-02-05T06:07:43;6.27;;;2.63;;
5349;SDS011;2697;42.144;24.794;2023-02-05T06:10:09;2.93;;;2.50;;
5349;SDS011;2697;42.144;24.794;2023-02-05T06:12:34;8.80;;;4.07;;
5349;SDS011;2697;42.144;24.794;2023-02-05T06:15:00;4.30;;;2.97;;
5349;SDS011;2697;42.144;24.794;2023-02-05T06:17:25;3.23;;;2.30;;
5349;SDS011;2697;42.144;24.794;2023-02-05T06:19:51;4.63;;;3.17;;
5349;SDS011;2697;42.144;24.794;2023-02-05T06:22:17;3.90;;;2.90;;
5349;SDS011;2697;42.144;24.794;2023-02-05T06:24:42;5.23;;;3.43;;
5349;SDS011;2697;42.144;24.794;2023-02-05T06:27:08;7.50;;;4.33;;
5349;SDS011;2697;42.144;24.794;2023-02-05T06:29:33;4.80;;;3.60;;
5349;SDS011;2697;42.144;24.794;2023-02-05T06:31:58;3.80;;;2.90;;
5349;SDS011;2697;42.144;24.794;2023-02-05T06:34:24;5.67;;;3.17;;
5349;SDS011;2697;42.144;24.794;2023-02-05T06:36:49;5.93;;;3.90;;
5349;SDS011;2697;42.144;24.794;2023-02-05T06:39:14;6.90;;;3.70;;
5349;SDS011;2697;42.144;24.794;2023-02-05T06:41:40;5.43;;;2.70;;
5349;SDS011;2697;42.144;24.794;2023-02-05T06:44:05;5.07;;;3.30;;
5349;SDS011;2697;42.144;24.794;2023-02-05T06:46:30;4.27;;;3.00;;
5349;SDS011;2697;42.144;24.794;2023-02-05T06:48:56;3.37;;;2.53;;
5349;SDS011;2697;42.144;24.794;2023-02-05T06:51:21;5.40;;;3.10;;
5349;SDS011;2697;42.144;24.794;2023-02-05T06:53:46;6.23;;;3.00;;
5349;SDS011;2697;42.144;24.794;2023-02-05T06:56:12;5.97;;;3.40;;
5349;SDS011;2697;42.144;24.794;2023-02-05T06:58:37;10.47;;;3.80;;
5349;SDS011;2697;42.144;24.794;2023-02-05T07:01:03;9.23;;;3.53;;
5349;SDS011;2697;42.144;24.794;2023-02-05T07:03:28;5.80;;;2.53;;
5349;SDS011;2697;42.144;24.794;2023-02-05T07:05:54;7.00;;;3.40;;
5349;SDS011;2697;42.144;24.794;2023-02-05T07:08:19;6.10;;;3.20;;
5349;SDS011;2697;42.144;24.794;2023-02-05T07:10:44;5.13;;;3.10;;
5349;SDS011;2697;42.144;24.794;2023-02-05T07:13:10;6.27;;;3.73;;
5349;SDS011;2697;42.144;24.794;2023-02-05T07:15:35;3.07;;;2.77;;
5349;SDS011;2697;42.144;24.794;2023-02-05T07:18:01;4.83;;;3.17;;
5349;SDS011;2697;42.144;24.794;2023-02-05T07:20:28;7.37;;;3.50;;
5349;SDS011;2697;42.144;24.794;2023-02-05T07:22:54;4.93;;;3.30;;
5349;SDS011;2697;42.144;24.794;2023-02-05T07:25:19;8.70;;;4.00;;
5349;SDS011;2697;42.144;24.794;2023-02-05T07:27:45;6.13;;;3.53;;
5349;SDS011;2697;42.144;24.794;2023-02-05T07:30:10;6.47;;;3.40;;
5349;SDS011;2697;42.144;24.794;2023-02-05T07:32:36;3.03;;;2.27;;
5349;SDS011;2697;42.144;24.794;2023-02-05T07:35:01;6.00;;;3.40;;
5349;SDS011;2697;42.144;24.794;2023-02-05T07:37:27;4.73;;;3.30;;
5349;SDS011;2697;42.144;24.794;2023-02-05T07:39:53;5.30;;;2.57;;
5349;SDS011;2697;42.144;24.794;2023-02-05T07:42:18;2.87;;;2.53;;
5349;SDS011;2697;42.144;24.794;2023-02-05T07:44:43;3.63;;;2.67;;
5349;SDS011;2697;42.144;24.794;2023-02-05T07:47:09;4.57;;;3.10;;
5349;SDS011;2697;42.144;24.794;2023-02-05T07:49:34;12.50;;;3.23;;
5349;SDS011;2697;42.144;24.794;2023-02-05T07:52:00;10.53;;;3.27;;
5349;SDS011;2697;42.144;24.794;2023-02-05T07:54:25;8.07;;;3.30;;
5349;SDS011;2697;42.144;24.794;2023-02-05T07:56:50;4.30;;;3.40;;
5349;SDS011;2697;42.144;24.794;2023-02-05T07:59:16;5.13;;;3.20;;
5349;SDS011;2697;42.144;24.794;2023-02-05T08:01:41;3.47;;;2.90;;
5349;SDS011;2697;42.144;24.794;2023-02-05T08:04:08;2.83;;;2.57;;
5349;SDS011;2697;42.144;24.794;2023-02-05T08:06:33;6.60;;;2.97;;
5349;SDS011;2697;42.144;24.794;2023-02-05T08:08:59;4.03;;;3.03;;
5349;SDS011;2697;42.144;24.794;2023-02-05T08:11:24;6.20;;;3.50;;
5349;SDS011;2697;42.144;24.794;2023-02-05T08:13:50;7.17;;;3.10;;
5349;SDS011;2697;42.144;24.794;2023-02-05T08:16:15;6.93;;;2.83;;
5349;SDS011;2697;42.144;24.794;2023-02-05T08:18:41;6.83;;;3.13;;
5349;SDS011;2697;42.144;24.794;2023-02-05T08:21:07;4.37;;;3.20;;
5349;SDS011;2697;42.144;24.794;2023-02-05T08:23:32;4.57;;;2.67;;
5349;SDS011;2697;42.144;24.794;2023-02-05T08:25:58;7.63;;;3.53;;
5349;SDS011;2697;42.144;24.794;2023-02-05T08:28:24;4.43;;;2.80;;
5349;SDS011;2697;42.144;24.794;2023-02-05T08:30:51;4.60;;;2.93;;
5349;SDS011;2697;42.144;24.794;2023-02-05T08:33:17;18.63;;;3.83;;
5349;SDS011;2697;42.144;24.794;2023-02-05T08:35:42;5.87;;;3.17;;
5349;SDS011;2697;42.144;24.794;2023-02-05T08:38:08;4.60;;;3.73;;
5349;SDS011;2697;42.144;24.794;2023-02-05T08:40:34;7.97;;;4.67;;
5349;SDS011;2697;42.144;24.794;2023-02-05T08:43:00;4.53;;;3.40;;
5349;SDS011;2697;42.144;24.794;2023-02-05T08:45:26;7.50;;;2.97;;
5349;SDS011;2697;42.144;24.794;2023-02-05T08:47:53;5.30;;;3.30;;
5349;SDS011;2697;42.144;24.794;2023-02-05T08:50:18;6.20;;;3.17;;
5349;SDS011;2697;42.144;24.794;2023-02-05T08:52:44;5.73;;;4.00;;
5349;SDS011;2697;42.144;24.794;2023-02-05T08:55:10;17.33;;;3.80;;
5349;SDS011;2697;42.144;24.794;2023-02-05T08:57:36;3.60;;;3.30;;
5349;SDS011;2697;42.144;24.794;2023-02-05T09:00:02;8.10;;;3.90;;
5349;SDS011;2697;42.144;24.794;2023-02-05T09:02:28;5.03;;;3.27;;
5349;SDS011;2697;42.144;24.794;2023-02-05T09:04:53;7.60;;;4.40;;
5349;SDS011;2697;42.144;24.794;2023-02-05T09:07:18;5.00;;;3.07;;
5349;SDS011;2697;42.144;24.794;2023-02-05T09:09:44;4.47;;;3.83;;
5349;SDS011;2697;42.144;24.794;2023-02-05T09:12:09;7.83;;;4.40;;
5349;SDS011;2697;42.144;24.794;2023-02-05T09:14:35;8.47;;;4.50;;
5349;SDS011;2697;42.144;24.794;2023-02-05T09:17:02;7.90;;;4.43;;
5349;SDS011;2697;42.144;24.794;2023-02-05T09:19:29;18.50;;;5.97;;
5349;SDS011;2697;42.144;24.794;2023-02-05T09:21:58;9.70;;;5.17;;
5349;SDS011;2697;42.144;24.794;2023-02-05T09:24:23;16.80;;;8.80;;
5349;SDS011;2697;42.144;24.794;2023-02-05T09:26:49;8.77;;;5.07;;
5349;SDS011;2697;42.144;24.794;2023-02-05T09:29:15;8.37;;;3.77;;
5349;SDS011;2697;42.144;24.794;2023-02-05T09:31:40;8.13;;;4.13;;
5349;SDS011;2697;42.144;24.794;2023-02-05T09:34:06;4.13;;;3.00;;
5349;SDS011;2697;42.144;24.794;2023-02-05T09:36:31;6.80;;;3.10;;
5349;SDS011;2697;42.144;24.794;2023-02-05T09:38:56;8.23;;;4.37;;
5349;SDS011;2697;42.144;24.794;2023-02-05T09:41:33;6.53;;;3.40;;
5349;SDS011;2697;42.144;24.794;2023-02-05T09:51:49;9.17;;;3.47;;
5349;SDS011;2697;42.144;24.794;2023-02-05T09:56:46;3.23;;;2.40;;
5349;SDS011;2697;42.144;24.794;2023-02-05T09:59:15;5.00;;;2.67;;
5349;SDS011;2697;42.144;24.794;2023-02-05T10:04:22;3.47;;;2.67;;
5349;SDS011;2697;42.144;24.794;2023-02-05T10:23:26;8.23;;;2.60;;
5349;SDS011;2697;42.144;24.794;2023-02-05T10:34:03;2.60;;;1.80;;
5349;SDS011;2697;42.144;24.794;2023-02-05T10:36:39;3.40;;;2.37;;
5349;SDS011;2697;42.144;24.794;2023-02-05T10:39:05;7.40;;;2.00;;
5349;SDS011;2697;42.144;24.794;2023-02-05T10:41:44;2.03;;;1.77;;
5349;SDS011;2697;42.144;24.794;2023-02-05T10:44:17;4.10;;;2.03;;
5349;SDS011;2697;42.144;24.794;2023-02-05T10:47:02;3.77;;;2.20;;
5349;SDS011;2697;42.144;24.794;2023-02-05T10:51:59;4.20;;;2.67;;
5349;SDS011;2697;42.144;24.794;2023-02-05T10:54:26;1.87;;;1.63;;
5349;SDS011;2697;42.144;24.794;2023-02-05T10:56:56;5.80;;;2.07;;
5349;SDS011;2697;42.144;24.794;2023-02-05T10:59:27;4.33;;;2.17;;
5349;SDS011;2697;42.144;24.794;2023-02-05T11:01:54;2.13;;;1.90;;
5349;SDS011;2697;42.144;24.794;2023-02-05T11:04:35;3.83;;;2.13;;
5349;SDS011;2697;42.144;24.794;2023-02-05T11:07:10;2.50;;;1.70;;
5349;SDS011;2697;42.144;24.794;2023-02-05T11:09:38;3.07;;;2.17;;
5349;SDS011;2697;42.144;24.794;2023-02-05T11:14:59;1.50;;;0.93;;
5349;SDS011;2697;42.144;24.794;2023-02-05T11:17:30;2.73;;;1.90;;
5349;SDS011;2697;42.144;24.794;2023-02-05T11:20:00;3.07;;;1.40;;
5349;SDS011;2697;42.144;24.794;2023-02-05T11:22:31;2.00;;;1.53;;
5349;SDS011;2697;42.144;24.794;2023-02-05T11:25:19;2.43;;;1.27;;
5349;SDS011;2697;42.144;24.794;2023-02-05T11:27:59;2.40;;;1.37;;
5349;SDS011;2697;42.144;24.794;2023-02-05T11:30:29;2.00;;;1.50;;
5349;SDS011;2697;42.144;24.794;2023-02-05T11:33:45;1.63;;;1.00;;
5349;SDS011;2697;42.144;24.794;2023-02-05T11:41:02;2.33;;;1.50;;
5349;SDS011;2697;42.144;24.794;2023-02-05T11:43:37;2.40;;;1.10;;
5349;SDS011;2697;42.144;24.794;2023-02-05T11:46:12;5.33;;;1.30;;
5349;SDS011;2697;42.144;24.794;2023-02-05T11:48:42;0.73;;;0.73;;
5349;SDS011;2697;42.144;24.794;2023-02-05T11:51:12;2.00;;;1.23;;
5349;SDS011;2697;42.144;24.794;2023-02-05T11:54:42;1.57;;;1.37;;
5349;SDS011;2697;42.144;24.794;2023-02-05T11:56:59;1.23;;;1.13;;
5349;SDS011;2697;42.144;24.794;2023-02-05T11:59:26;1.90;;;1.43;;
5349;SDS011;2697;42.144;24.794;2023-02-05T12:01:52;1.30;;;1.20;;
5349;SDS011;2697;42.144;24.794;2023-02-05T12:04:18;3.73;;;1.57;;
5349;SDS011;2697;42.144;24.794;2023-02-05T12:09:19;3.20;;;1.50;;
5349;SDS011;2697;42.144;24.794;2023-02-05T12:11:52;1.33;;;1.23;;
5349;SDS011;2697;42.144;24.794;2023-02-05T12:17:33;3.07;;;1.43;;
5349;SDS011;2697;42.144;24.794;2023-02-05T12:20:22;2.03;;;1.40;;
5349;SDS011;2697;42.144;24.794;2023-02-05T12:34:06;2.60;;;1.40;;
5349;SDS011;2697;42.144;24.794;2023-02-05T12:39:48;2.87;;;1.00;;
5349;SDS011;2697;42.144;24.794;2023-02-05T12:42:28;2.90;;;2.00;;
5349;SDS011;2697;42.144;24.794;2023-02-05T12:45:02;4.50;;;2.10;;
5349;SDS011;2697;42.144;24.794;2023-02-05T12:50:23;2.83;;;1.20;;
5349;SDS011;2697;42.144;24.794;2023-02-05T12:55:46;1.10;;;1.10;;
5349;SDS011;2697;42.144;24.794;2023-02-05T12:58:26;9.63;;;1.87;;
5349;SDS011;2697;42.144;24.794;2023-02-05T13:01:09;1.43;;;1.17;;
5349;SDS011;2697;42.144;24.794;2023-02-05T13:06:21;1.33;;;1.10;;
5349;SDS011;2697;42.144;24.794;2023-02-05T13:09:03;1.67;;;1.50;;
5349;SDS011;2697;42.144;24.794;2023-02-05T13:11:38;5.50;;;2.00;;
5349;SDS011;2697;42.144;24.794;2023-02-05T13:14:08;1.87;;;1.47;;
5349;SDS011;2697;42.144;24.794;2023-02-05T13:16:48;1.30;;;1.20;;
5349;SDS011;2697;42.144;24.794;2023-02-05T13:19:36;3.47;;;1.93;;
5349;SDS011;2697;42.144;24.794;2023-02-05T13:31:05;1.50;;;1.40;;
5349;SDS011;2697;42.144;24.794;2023-02-05T13:33:54;0.87;;;0.83;;
5349;SDS011;2697;42.144;24.794;2023-02-05T13:55:42;3.87;;;1.50;;
5349;SDS011;2697;42.144;24.794;2023-02-05T14:00:48;4.20;;;1.77;;
5349;SDS011;2697;42.144;24.794;2023-02-05T14:05:59;1.30;;;1.20;;
5349;SDS011;2697;42.144;24.794;2023-02-05T14:08:38;1.70;;;1.60;;
5349;SDS011;2697;42.144;24.794;2023-02-05T14:11:04;2.83;;;1.47;;
5349;SDS011;2697;42.144;24.794;2023-02-05T14:13:30;3.43;;;1.73;;
5349;SDS011;2697;42.144;24.794;2023-02-05T14:23:56;2.80;;;1.80;;
5349;SDS011;2697;42.144;24.794;2023-02-05T14:26:43;1.50;;;1.30;;
5349;SDS011;2697;42.144;24.794;2023-02-05T14:37:36;3.57;;;2.60;;
5349;SDS011;2697;42.144;24.794;2023-02-05T14:40:11;7.60;;;2.23;;
5349;SDS011;2697;42.144;24.794;2023-02-05T14:42:47;3.27;;;2.07;;
5349;SDS011;2697;42.144;24.794;2023-02-05T14:45:14;3.40;;;1.97;;
5349;SDS011;2697;42.144;24.794;2023-02-05T14:47:41;3.07;;;1.90;;
5349;SDS011;2697;42.144;24.794;2023-02-05T14:50:18;2.03;;;1.20;;
5349;SDS011;2697;42.144;24.794;2023-02-05T14:52:51;8.40;;;2.47;;
5349;SDS011;2697;42.144;24.794;2023-02-05T14:55:19;2.13;;;1.93;;
5349;SDS011;2697;42.144;24.794;2023-02-05T14:57:59;2.87;;;1.50;;
5349;SDS011;2697;42.144;24.794;2023-02-05T15:00:35;1.93;;;1.60;;
5349;SDS011;2697;42.144;24.794;2023-02-05T15:14:00;8.60;;;2.20;;
5349;SDS011;2697;42.144;24.794;2023-02-05T15:16:46;3.73;;;2.17;;
5349;SDS011;2697;42.144;24.794;2023-02-05T15:19:42;7.63;;;3.60;;
5349;SDS011;2697;42.144;24.794;2023-02-05T15:24:57;8.43;;;3.80;;
5349;SDS011;2697;42.144;24.794;2023-02-05T15:27:30;6.67;;;3.20;;
5349;SDS011;2697;42.144;24.794;2023-02-05T15:30:06;9.83;;;2.57;;
5349;SDS011;2697;42.144;24.794;2023-02-05T15:32:43;6.63;;;1.83;;
5349;SDS011;2697;42.144;24.794;2023-02-05T15:35:15;4.40;;;2.13;;
5349;SDS011;2697;42.144;24.794;2023-02-05T15:40:45;9.60;;;3.13;;
5349;SDS011;2697;42.144;24.794;2023-02-05T15:43:15;4.40;;;2.43;;
5349;SDS011;2697;42.144;24.794;2023-02-05T15:45:43;29.03;;;8.30;;
5349;SDS011;2697;42.144;24.794;2023-02-05T15:50:46;4.87;;;2.70;;
5349;SDS011;2697;42.144;24.794;2023-02-05T15:53:24;21.23;;;3.33;;
5349;SDS011;2697;42.144;24.794;2023-02-05T15:56:07;4.53;;;2.80;;
5349;SDS011;2697;42.144;24.794;2023-02-05T15:58:46;6.60;;;2.60;;
5349;SDS011;2697;42.144;24.794;2023-02-05T16:03:49;12.50;;;3.57;;
5349;SDS011;2697;42.144;24.794;2023-02-05T16:06:18;9.53;;;4.00;;
5349;SDS011;2697;42.144;24.794;2023-02-05T16:08:46;8.07;;;3.00;;
5349;SDS011;2697;42.144;24.794;2023-02-05T16:11:21;6.60;;;3.37;;
5349;SDS011;2697;42.144;24.794;2023-02-05T16:16:35;7.90;;;3.30;;
5349;SDS011;2697;42.144;24.794;2023-02-05T16:19:02;8.07;;;3.20;;
5349;SDS011;2697;42.144;24.794;2023-02-05T16:21:53;8.03;;;3.43;;
5349;SDS011;2697;42.144;24.794;2023-02-05T16:24:26;8.03;;;3.43;;
5349;SDS011;2697;42.144;24.794;2023-02-05T16:27:17;4.77;;;3.37;;
5349;SDS011;2697;42.144;24.794;2023-02-05T16:29:50;9.43;;;4.27;;
5349;SDS011;2697;42.144;24.794;2023-02-05T16:34:52;6.60;;;2.90;;
5349;SDS011;2697;42.144;24.794;2023-02-05T16:37:18;5.67;;;3.07;;
5349;SDS011;2697;42.144;24.794;2023-02-05T16:39:46;12.30;;;3.40;;
5349;SDS011;2697;42.144;24.794;2023-02-05T16:42:34;15.73;;;3.90;;
5349;SDS011;2697;42.144;24.794;2023-02-05T16:47:35;4.70;;;3.37;;
5349;SDS011;2697;42.144;24.794;2023-02-05T16:50:00;8.40;;;3.97;;
5349;SDS011;2697;42.144;24.794;2023-02-05T16:53:01;17.63;;;4.00;;
5349;SDS011;2697;42.144;24.794;2023-02-05T16:57:54;6.93;;;3.30;;
5349;SDS011;2697;42.144;24.794;2023-02-05T17:00:28;10.83;;;3.97;;
5349;SDS011;2697;42.144;24.794;2023-02-05T17:02:55;8.07;;;4.33;;
5349;SDS011;2697;42.144;24.794;2023-02-05T17:05:24;17.30;;;6.07;;
5349;SDS011;2697;42.144;24.794;2023-02-05T17:08:02;10.90;;;4.93;;
5349;SDS011;2697;42.144;24.794;2023-02-05T17:10:30;11.60;;;5.90;;
5349;SDS011;2697;42.144;24.794;2023-02-05T17:12:59;14.40;;;5.40;;
5349;SDS011;2697;42.144;24.794;2023-02-05T17:17:58;10.70;;;4.00;;
5349;SDS011;2697;42.144;24.794;2023-02-05T17:20:30;4.83;;;3.43;;
5349;SDS011;2697;42.144;24.794;2023-02-05T17:25:22;11.87;;;4.47;;
5349;SDS011;2697;42.144;24.794;2023-02-05T17:27:47;11.90;;;4.90;;
5349;SDS011;2697;42.144;24.794;2023-02-05T17:30:14;12.33;;;4.80;;
5349;SDS011;2697;42.144;24.794;2023-02-05T17:32:42;9.00;;;4.67;;
5349;SDS011;2697;42.144;24.794;2023-02-05T17:35:13;9.80;;;5.30;;
5349;SDS011;2697;42.144;24.794;2023-02-05T17:37:43;6.23;;;4.10;;
5349;SDS011;2697;42.144;24.794;2023-02-05T17:40:10;19.37;;;3.47;;
5349;SDS011;2697;42.144;24.794;2023-02-05T17:42:36;3.50;;;2.67;;
5349;SDS011;2697;42.144;24.794;2023-02-05T17:45:07;7.50;;;2.67;;
5349;SDS011;2697;42.144;24.794;2023-02-05T17:47:40;2.83;;;2.30;;
5349;SDS011;2697;42.144;24.794;2023-02-05T17:50:06;9.33;;;3.00;;
5349;SDS011;2697;42.144;24.794;2023-02-05T17:52:32;9.47;;;3.43;;
5349;SDS011;2697;42.144;24.794;2023-02-05T17:54:57;5.80;;;2.53;;
5349;SDS011;2697;42.144;24.794;2023-02-05T17:57:22;16.90;;;3.80;;
5349;SDS011;2697;42.144;24.794;2023-02-05T17:59:48;7.97;;;3.27;;
5349;SDS011;2697;42.144;24.794;2023-02-05T18:02:14;7.70;;;3.07;;
5349;SDS011;2697;42.144;24.794;2023-02-05T18:04:40;7.80;;;3.70;;
5349;SDS011;2697;42.144;24.794;2023-02-05T18:07:12;6.90;;;3.40;;
5349;SDS011;2697;42.144;24.794;2023-02-05T18:09:45;5.30;;;2.60;;
5349;SDS011;2697;42.144;24.794;2023-02-05T18:12:10;11.43;;;4.20;;
5349;SDS011;2697;42.144;24.794;2023-02-05T18:14:36;5.80;;;2.60;;